sensor_id;sensor_type;location;lat;lon;timestamp;pressure;altitude;pressure_sealevel;temperature;humidity
50125;BME280;36023;48.670;6.184;2022-09-13T00:01:45;98554.31;;;23.10;46.14
50125;BME280;36023;48.670;6.184;2022-09-13T00:04:10;98556.94;;;23.10;46.21
50125;BME280;36023;48.670;6.184;2022-09-13T00:06:36;98554.31;;;23.10;46.34
50125;BME280;36023;48.670;6.184;2022-09-13T00:09:02;98556.09;;;23.10;46.03
50125;BME280;36023;48.670;6.184;2022-09-13T00:11:28;98565.84;;;23.09;45.91
50125;BME280;36023;48.670;6.184;2022-09-13T00:13:55;98565.84;;;23.09;45.99
50125;BME280;36023;48.670;6.184;2022-09-13T00:16:23;98572.91;;;23.08;46.24
50125;BME280;36023;48.670;6.184;2022-09-13T00:18:50;98585.28;;;23.08;45.99
50125;BME280;36023;48.670;6.184;2022-09-13T00:21:17;98585.28;;;23.08;45.92
50125;BME280;36023;48.670;6.184;2022-09-13T00:23:43;98588.78;;;23.08;46.03
50125;BME280;36023;48.670;6.184;2022-09-13T00:26:12;98583.47;;;23.08;45.75
50125;BME280;36023;48.670;6.184;2022-09-13T00:28:38;98585.28;;;23.08;45.85
50125;BME280;36023;48.670;6.184;2022-09-13T00:31:04;98580.00;;;23.08;45.75
50125;BME280;36023;48.670;6.184;2022-09-13T00:33:30;98579.28;;;23.06;45.78
50125;BME280;36023;48.670;6.184;2022-09-13T00:36:02;98582.78;;;23.06;45.74
50125;BME280;36023;48.670;6.184;2022-09-13T00:38:28;98581.09;;;23.05;45.91
50125;BME280;36023;48.670;6.184;2022-09-13T00:40:53;98581.09;;;23.05;45.94
50125;BME280;36023;48.670;6.184;2022-09-13T00:43:20;98574.97;;;23.05;45.54
50125;BME280;36023;48.670;6.184;2022-09-13T00:45:46;98566.22;;;23.04;45.64
50125;BME280;36023;48.670;6.184;2022-09-13T00:48:20;98573.31;;;23.04;45.64
50125;BME280;36023;48.670;6.184;2022-09-13T00:50:50;98572.47;;;23.03;45.74
50125;BME280;36023;48.670;6.184;2022-09-13T00:53:22;98568.03;;;23.04;45.90
50125;BME280;36023;48.670;6.184;2022-09-13T00:55:57;98571.59;;;23.03;45.94
50125;BME280;36023;48.670;6.184;2022-09-13T00:58:28;98561.03;;;23.03;45.70
50125;BME280;36023;48.670;6.184;2022-09-13T01:00:55;98565.38;;;23.04;45.71
50125;BME280;36023;48.670;6.184;2022-09-13T01:03:24;98557.56;;;23.02;45.75
50125;BME280;36023;48.670;6.184;2022-09-13T01:05:55;98556.63;;;23.03;45.77
50125;BME280;36023;48.670;6.184;2022-09-13T01:08:22;98557.47;;;23.04;45.79
50125;BME280;36023;48.670;6.184;2022-09-13T01:10:49;98553.09;;;23.03;45.81
50125;BME280;36023;48.670;6.184;2022-09-13T01:13:17;98549.63;;;23.02;45.81
50125;BME280;36023;48.670;6.184;2022-09-13T01:15:43;98540.03;;;23.01;45.67
50125;BME280;36023;48.670;6.184;2022-09-13T01:18:09;98541.84;;;23.01;45.71
50125;BME280;36023;48.670;6.184;2022-09-13T01:23:42;98538.22;;;23.02;45.62
50125;BME280;36023;48.670;6.184;2022-09-13T01:31:37;98543.63;;;23.00;45.30
50125;BME280;36023;48.670;6.184;2022-09-13T01:34:15;98545.44;;;23.00;45.52
50125;BME280;36023;48.670;6.184;2022-09-13T01:39:22;98543.63;;;23.00;45.68
50125;BME280;36023;48.670;6.184;2022-09-13T01:42:00;98538.34;;;23.00;45.57
50125;BME280;36023;48.670;6.184;2022-09-13T01:44:36;98541.00;;;23.00;45.47
50125;BME280;36023;48.670;6.184;2022-09-13T01:49:33;98537.50;;;23.00;45.62
50125;BME280;36023;48.670;6.184;2022-09-13T01:52:07;98530.44;;;23.00;45.61
50125;BME280;36023;48.670;6.184;2022-09-13T01:59:49;98521.66;;;23.00;45.27
50125;BME280;36023;48.670;6.184;2022-09-13T02:02:18;98513.75;;;23.00;45.25
50125;BME280;36023;48.670;6.184;2022-09-13T02:04:52;98511.09;;;23.00;45.57
50125;BME280;36023;48.670;6.184;2022-09-13T02:07:20;98498.88;;;22.99;45.22
50125;BME280;36023;48.670;6.184;2022-09-13T02:09:50;98501.38;;;23.00;45.49
50125;BME280;36023;48.670;6.184;2022-09-13T02:12:22;98503.19;;;23.00;45.25
50125;BME280;36023;48.670;6.184;2022-09-13T02:15:31;98512.78;;;23.01;45.49
50125;BME280;36023;48.670;6.184;2022-09-13T02:17:38;98507.50;;;23.01;45.18
50125;BME280;36023;48.670;6.184;2022-09-13T02:20:11;98515.41;;;23.01;45.23
50125;BME280;36023;48.670;6.184;2022-09-13T02:22:38;98515.41;;;23.01;45.47
50125;BME280;36023;48.670;6.184;2022-09-13T02:25:09;98515.41;;;23.01;45.39
50125;BME280;36023;48.670;6.184;2022-09-13T02:27:36;98510.13;;;23.01;45.23
50125;BME280;36023;48.670;6.184;2022-09-13T02:30:05;98510.13;;;23.01;45.39
50125;BME280;36023;48.670;6.184;2022-09-13T02:32:32;98515.41;;;23.01;45.10
50125;BME280;36023;48.670;6.184;2022-09-13T02:37:27;98508.47;;;23.00;45.30
50125;BME280;36023;48.670;6.184;2022-09-13T02:39:54;98507.63;;;22.99;45.34
50125;BME280;36023;48.670;6.184;2022-09-13T02:42:22;98504.03;;;23.00;45.05
50125;BME280;36023;48.670;6.184;2022-09-13T02:44:51;98504.16;;;22.99;45.26
50125;BME280;36023;48.670;6.184;2022-09-13T02:55:15;98507.75;;;22.98;45.25
50125;BME280;36023;48.670;6.184;2022-09-13T02:57:47;98513.88;;;22.98;45.12
50125;BME280;36023;48.670;6.184;2022-09-13T03:00:15;98513.03;;;22.98;45.27
50125;BME280;36023;48.670;6.184;2022-09-13T03:02:41;98505.13;;;22.98;45.00
50125;BME280;36023;48.670;6.184;2022-09-13T03:05:08;98504.28;;;22.97;45.25
50125;BME280;36023;48.670;6.184;2022-09-13T03:07:34;98506.78;;;22.99;45.21
50125;BME280;36023;48.670;6.184;2022-09-13T03:10:01;98494.56;;;22.98;44.86
50125;BME280;36023;48.670;6.184;2022-09-13T03:25:49;98480.66;;;22.96;45.08
50125;BME280;36023;48.670;6.184;2022-09-13T03:28:23;98475.38;;;22.96;45.14
50125;BME280;36023;48.670;6.184;2022-09-13T03:30:55;98487.69;;;22.95;45.08
50125;BME280;36023;48.670;6.184;2022-09-13T03:35:55;98486.75;;;22.96;45.15
50125;BME280;36023;48.670;6.184;2022-09-13T03:38:24;98486.03;;;22.94;45.01
50125;BME280;36023;48.670;6.184;2022-09-13T03:40:52;98485.94;;;22.96;45.07
50125;BME280;36023;48.670;6.184;2022-09-13T03:43:21;98485.94;;;22.96;44.76
50125;BME280;36023;48.670;6.184;2022-09-13T03:45:49;98492.97;;;22.95;45.08
50125;BME280;36023;48.670;6.184;2022-09-13T03:48:16;98493.94;;;22.94;44.94
50125;BME280;36023;48.670;6.184;2022-09-13T03:50:44;98490.34;;;22.95;45.04
50125;BME280;36023;48.670;6.184;2022-09-13T03:53:11;98498.38;;;22.94;44.89
50125;BME280;36023;48.670;6.184;2022-09-13T03:55:38;98496.59;;;22.94;44.89
50125;BME280;36023;48.670;6.184;2022-09-13T03:58:04;98485.19;;;22.94;44.82
50125;BME280;36023;48.670;6.184;2022-09-13T04:00:30;98486.03;;;22.94;44.73
50125;BME280;36023;48.670;6.184;2022-09-13T04:02:56;98482.53;;;22.94;44.99
50125;BME280;36023;48.670;6.184;2022-09-13T04:05:22;98484.34;;;22.93;44.73
50125;BME280;36023;48.670;6.184;2022-09-13T04:07:47;98487.00;;;22.93;45.00
50125;BME280;36023;48.670;6.184;2022-09-13T04:10:13;98483.50;;;22.93;44.71
50125;BME280;36023;48.670;6.184;2022-09-13T04:12:39;98479.91;;;22.94;44.82
50125;BME280;36023;48.670;6.184;2022-09-13T04:15:05;98480.88;;;22.93;44.84
50125;BME280;36023;48.670;6.184;2022-09-13T04:17:31;98480.03;;;22.92;44.80
50125;BME280;36023;48.670;6.184;2022-09-13T04:19:57;98485.31;;;22.92;44.78
50125;BME280;36023;48.670;6.184;2022-09-13T04:22:22;98485.31;;;22.92;44.82
50125;BME280;36023;48.670;6.184;2022-09-13T04:24:48;98494.06;;;22.93;44.86
50125;BME280;36023;48.670;6.184;2022-09-13T04:27:13;98495.03;;;22.92;44.91
50125;BME280;36023;48.670;6.184;2022-09-13T04:29:39;98501.16;;;22.92;44.85
50125;BME280;36023;48.670;6.184;2022-09-13T04:32:04;98503.66;;;22.94;44.66
50125;BME280;36023;48.670;6.184;2022-09-13T04:34:30;98508.13;;;22.93;44.99
50125;BME280;36023;48.670;6.184;2022-09-13T04:36:56;98498.38;;;22.94;44.65
50125;BME280;36023;48.670;6.184;2022-09-13T04:39:22;98502.00;;;22.93;44.63
50125;BME280;36023;48.670;6.184;2022-09-13T04:41:50;98497.56;;;22.93;44.85
50125;BME280;36023;48.670;6.184;2022-09-13T04:44:18;98508.13;;;22.93;45.02
50125;BME280;36023;48.670;6.184;2022-09-13T04:46:45;98500.31;;;22.92;44.79
50125;BME280;36023;48.670;6.184;2022-09-13T04:49:12;98512.56;;;22.93;44.59
50125;BME280;36023;48.670;6.184;2022-09-13T04:51:39;98507.28;;;22.93;44.63
50125;BME280;36023;48.670;6.184;2022-09-13T04:54:04;98507.28;;;22.93;44.86
50125;BME280;36023;48.670;6.184;2022-09-13T04:56:30;98507.28;;;22.93;44.71
50125;BME280;36023;48.670;6.184;2022-09-13T04:58:55;98506.44;;;22.92;44.97
50125;BME280;36023;48.670;6.184;2022-09-13T05:01:22;98507.28;;;22.93;44.72
50125;BME280;36023;48.670;6.184;2022-09-13T05:03:49;98510.88;;;22.92;45.04
50125;BME280;36023;48.670;6.184;2022-09-13T05:06:15;98514.50;;;22.91;44.63
50125;BME280;36023;48.670;6.184;2022-09-13T05:08:51;98511.00;;;22.90;44.87
50125;BME280;36023;48.670;6.184;2022-09-13T05:11:20;98509.22;;;22.91;44.85
50125;BME280;36023;48.670;6.184;2022-09-13T05:13:53;98503.94;;;22.91;44.91
50125;BME280;36023;48.670;6.184;2022-09-13T05:16:22;98501.28;;;22.91;44.78
50125;BME280;36023;48.670;6.184;2022-09-13T05:18:48;98503.09;;;22.90;44.98
50125;BME280;36023;48.670;6.184;2022-09-13T05:21:15;98502.25;;;22.90;44.98
50125;BME280;36023;48.670;6.184;2022-09-13T05:23:41;98501.41;;;22.89;45.00
50125;BME280;36023;48.670;6.184;2022-09-13T05:26:06;98503.22;;;22.89;45.02
50125;BME280;36023;48.670;6.184;2022-09-13T05:28:33;98504.16;;;22.88;44.69
50125;BME280;36023;48.670;6.184;2022-09-13T05:31:06;98505.84;;;22.89;45.02
50125;BME280;36023;48.670;6.184;2022-09-13T05:33:33;98507.66;;;22.88;44.72
50125;BME280;36023;48.670;6.184;2022-09-13T05:36:00;98498.03;;;22.87;44.72
50125;BME280;36023;48.670;6.184;2022-09-13T05:38:29;98506.78;;;22.88;45.07
50125;BME280;36023;48.670;6.184;2022-09-13T05:40:55;98505.13;;;22.87;44.74
50125;BME280;36023;48.670;6.184;2022-09-13T05:43:21;98507.75;;;22.87;45.03
50125;BME280;36023;48.670;6.184;2022-09-13T05:45:47;98502.47;;;22.87;45.03
50125;BME280;36023;48.670;6.184;2022-09-13T05:48:12;98497.19;;;22.87;45.11
50125;BME280;36023;48.670;6.184;2022-09-13T05:50:39;98479.53;;;22.87;44.75
50125;BME280;36023;48.670;6.184;2022-09-13T05:53:04;98469.94;;;22.86;44.96
50125;BME280;36023;48.670;6.184;2022-09-13T05:55:31;98465.50;;;22.87;44.75
50125;BME280;36023;48.670;6.184;2022-09-13T05:57:57;98461.06;;;22.87;45.11
50125;BME280;36023;48.670;6.184;2022-09-13T06:00:23;98447.88;;;22.87;45.06
50125;BME280;36023;48.670;6.184;2022-09-13T06:02:48;98425.91;;;22.87;45.14
50125;BME280;36023;48.670;6.184;2022-09-13T06:05:14;98416.31;;;22.86;44.79
50125;BME280;36023;48.670;6.184;2022-09-13T06:07:40;98416.31;;;22.86;45.15
50125;BME280;36023;48.670;6.184;2022-09-13T06:10:09;98424.22;;;22.86;44.81
50125;BME280;36023;48.670;6.184;2022-09-13T06:12:35;98448.81;;;22.86;45.13
50125;BME280;36023;48.670;6.184;2022-09-13T06:15:01;98465.63;;;22.85;44.82
50125;BME280;36023;48.670;6.184;2022-09-13T06:17:28;98467.41;;;22.85;45.02
50125;BME280;36023;48.670;6.184;2022-09-13T06:19:54;98461.28;;;22.84;45.12
50125;BME280;36023;48.670;6.184;2022-09-13T06:22:21;98450.72;;;22.84;45.06
50125;BME280;36023;48.670;6.184;2022-09-13T06:24:46;98458.31;;;22.89;45.18
50125;BME280;36023;48.670;6.184;2022-09-13T06:27:12;98449.44;;;22.90;45.31
50125;BME280;36023;48.670;6.184;2022-09-13T06:29:38;98438.63;;;22.93;45.57
50125;BME280;36023;48.670;6.184;2022-09-13T06:32:04;98441.13;;;22.94;45.95
50125;BME280;36023;48.670;6.184;2022-09-13T06:34:30;98442.94;;;22.94;46.09
50125;BME280;36023;48.670;6.184;2022-09-13T06:36:56;98450.84;;;22.94;46.30
50125;BME280;36023;48.670;6.184;2022-09-13T06:39:22;98447.38;;;22.93;46.33
50125;BME280;36023;48.670;6.184;2022-09-13T06:41:47;98443.91;;;22.93;46.76
50125;BME280;36023;48.670;6.184;2022-09-13T06:44:13;98449.19;;;22.93;46.73
50125;BME280;36023;48.670;6.184;2022-09-13T06:46:38;98450.97;;;22.92;46.77
50125;BME280;36023;48.670;6.184;2022-09-13T06:49:04;98440.56;;;22.91;46.90
50125;BME280;36023;48.670;6.184;2022-09-13T06:51:31;98428.31;;;22.90;46.94
50125;BME280;36023;48.670;6.184;2022-09-13T06:53:57;98423.88;;;22.90;47.22
50125;BME280;36023;48.670;6.184;2022-09-13T06:56:41;98424.84;;;22.89;47.40
50125;BME280;36023;48.670;6.184;2022-09-13T06:59:07;98416.91;;;22.89;47.29
50125;BME280;36023;48.670;6.184;2022-09-13T07:01:35;98417.75;;;22.90;47.45
50125;BME280;36023;48.670;6.184;2022-09-13T07:04:05;98417.75;;;22.90;47.57
50125;BME280;36023;48.670;6.184;2022-09-13T07:06:32;98410.81;;;22.89;47.73
50125;BME280;36023;48.670;6.184;2022-09-13T07:08:59;98405.53;;;22.89;47.63
50125;BME280;36023;48.670;6.184;2022-09-13T07:11:28;98405.53;;;22.89;47.98
50125;BME280;36023;48.670;6.184;2022-09-13T07:13:55;98402.97;;;22.87;48.08
50125;BME280;36023;48.670;6.184;2022-09-13T07:16:22;98406.44;;;22.88;48.08
50125;BME280;36023;48.670;6.184;2022-09-13T07:21:17;98439.09;;;22.87;48.25
50125;BME280;36023;48.670;6.184;2022-09-13T07:23:43;98436.47;;;22.87;48.02
50125;BME280;36023;48.670;6.184;2022-09-13T07:26:10;98437.44;;;22.86;48.12
50125;BME280;36023;48.670;6.184;2022-09-13T07:28:37;98447.16;;;22.85;48.08
50125;BME280;36023;48.670;6.184;2022-09-13T07:33:31;98448.09;;;22.84;48.23
50125;BME280;36023;48.670;6.184;2022-09-13T07:35:59;98449.91;;;22.84;48.11
50125;BME280;36023;48.670;6.184;2022-09-13T07:38:27;98455.19;;;22.84;48.31
50125;BME280;36023;48.670;6.184;2022-09-13T07:40:54;98464.06;;;22.83;48.20
50125;BME280;36023;48.670;6.184;2022-09-13T07:43:20;98469.34;;;22.83;48.40
50125;BME280;36023;48.670;6.184;2022-09-13T07:45:46;98473.78;;;22.82;48.25
50125;BME280;36023;48.670;6.184;2022-09-13T07:48:11;98475.59;;;22.82;48.29
50125;BME280;36023;48.670;6.184;2022-09-13T07:50:37;98474.75;;;22.81;48.35
50125;BME280;36023;48.670;6.184;2022-09-13T07:53:02;98479.19;;;22.80;48.16
50125;BME280;36023;48.670;6.184;2022-09-13T07:55:28;98481.84;;;22.80;48.35
50125;BME280;36023;48.670;6.184;2022-09-13T07:57:54;98479.19;;;22.80;48.35
50125;BME280;36023;48.670;6.184;2022-09-13T08:00:20;98483.59;;;22.80;48.27
50125;BME280;36023;48.670;6.184;2022-09-13T08:02:45;98473.91;;;22.80;48.33
50125;BME280;36023;48.670;6.184;2022-09-13T08:05:11;98468.63;;;22.80;48.17
50125;BME280;36023;48.670;6.184;2022-09-13T08:07:36;98472.22;;;22.79;48.26
50125;BME280;36023;48.670;6.184;2022-09-13T08:10:02;98475.69;;;22.80;48.02
50125;BME280;36023;48.670;6.184;2022-09-13T08:12:28;98475.59;;;22.82;48.18
50125;BME280;36023;48.670;6.184;2022-09-13T08:14:53;98483.50;;;22.82;48.20
50125;BME280;36023;48.670;6.184;2022-09-13T08:17:20;98501.63;;;22.86;48.42
50125;BME280;36023;48.670;6.184;2022-09-13T08:19:45;98506.91;;;22.97;48.02
50125;BME280;36023;48.670;6.184;2022-09-13T08:22:11;98508.25;;;22.92;47.87
50125;BME280;36023;48.670;6.184;2022-09-13T08:24:36;98499.09;;;22.85;47.86
50125;BME280;36023;48.670;6.184;2022-09-13T08:27:04;98504.50;;;22.83;48.21
50125;BME280;36023;48.670;6.184;2022-09-13T08:29:29;98502.00;;;22.82;48.26
50125;BME280;36023;48.670;6.184;2022-09-13T08:31:55;98490.59;;;22.81;48.01
50125;BME280;36023;48.670;6.184;2022-09-13T08:34:20;98487.13;;;22.80;48.22
50125;BME280;36023;48.670;6.184;2022-09-13T08:36:47;98485.41;;;22.79;48.07
50125;BME280;36023;48.670;6.184;2022-09-13T08:39:12;98485.41;;;22.79;48.01
50125;BME280;36023;48.670;6.184;2022-09-13T08:44:23;98476.66;;;22.79;48.06
50125;BME280;36023;48.670;6.184;2022-09-13T08:46:51;98473.16;;;22.78;48.22
50125;BME280;36023;48.670;6.184;2022-09-13T08:49:21;98468.84;;;22.77;48.05
50125;BME280;36023;48.670;6.184;2022-09-13T08:51:57;98468.84;;;22.77;48.21
50125;BME280;36023;48.670;6.184;2022-09-13T08:54:24;98468.03;;;22.77;48.08
50125;BME280;36023;48.670;6.184;2022-09-13T09:06:47;98466.34;;;22.76;47.92
50125;BME280;36023;48.670;6.184;2022-09-13T09:09:17;98468.84;;;22.77;47.89
50125;BME280;36023;48.670;6.184;2022-09-13T09:11:57;98467.19;;;22.76;47.98
50125;BME280;36023;48.670;6.184;2022-09-13T09:14:26;98471.63;;;22.76;47.97
50125;BME280;36023;48.670;6.184;2022-09-13T09:19:26;98478.56;;;22.77;48.05
50125;BME280;36023;48.670;6.184;2022-09-13T09:21:54;98476.06;;;22.75;47.99
50125;BME280;36023;48.670;6.184;2022-09-13T09:24:24;98479.41;;;22.77;48.21
50125;BME280;36023;48.670;6.184;2022-09-13T09:26:51;98473.31;;;22.77;48.25
50125;BME280;36023;48.670;6.184;2022-09-13T09:34:19;98477.75;;;22.76;48.11
50125;BME280;36023;48.670;6.184;2022-09-13T09:36:59;98483.03;;;22.76;48.21
50125;BME280;36023;48.670;6.184;2022-09-13T09:39:29;98478.72;;;22.75;47.99
50125;BME280;36023;48.670;6.184;2022-09-13T09:41:57;98488.31;;;22.76;48.16
50125;BME280;36023;48.670;6.184;2022-09-13T09:44:26;98484.00;;;22.75;47.99
50125;BME280;36023;48.670;6.184;2022-09-13T09:47:03;98477.88;;;22.75;48.12
50125;BME280;36023;48.670;6.184;2022-09-13T09:49:44;98487.47;;;22.76;47.84
50125;BME280;36023;48.670;6.184;2022-09-13T09:52:35;98481.34;;;22.75;47.91
50125;BME280;36023;48.670;6.184;2022-09-13T09:55:19;98474.41;;;22.74;48.14
50125;BME280;36023;48.670;6.184;2022-09-13T09:57:48;98469.13;;;22.74;48.08
50125;BME280;36023;48.670;6.184;2022-09-13T10:00:14;98472.59;;;22.75;48.05
50125;BME280;36023;48.670;6.184;2022-09-13T10:02:43;98469.13;;;22.74;47.98
50125;BME280;36023;48.670;6.184;2022-09-13T10:05:09;98465.63;;;22.74;48.20
50125;BME280;36023;48.670;6.184;2022-09-13T10:07:37;98468.41;;;22.72;48.25
50125;BME280;36023;48.670;6.184;2022-09-13T10:12:54;98449.78;;;22.74;48.18
50125;BME280;36023;48.670;6.184;2022-09-13T10:15:22;98458.56;;;22.74;48.08
50125;BME280;36023;48.670;6.184;2022-09-13T10:20:36;98455.91;;;22.74;47.98
50125;BME280;36023;48.670;6.184;2022-09-13T10:25:34;98453.28;;;22.74;47.93
50125;BME280;36023;48.670;6.184;2022-09-13T10:28:01;98459.38;;;22.75;48.20
50125;BME280;36023;48.670;6.184;2022-09-13T10:30:34;98452.31;;;22.75;48.18
50125;BME280;36023;48.670;6.184;2022-09-13T10:33:02;98455.06;;;22.74;47.90
50125;BME280;36023;48.670;6.184;2022-09-13T10:35:31;98454.94;;;22.75;48.00
50125;BME280;36023;48.670;6.184;2022-09-13T10:37:57;98451.47;;;22.75;48.16
50125;BME280;36023;48.670;6.184;2022-09-13T10:42:49;98439.94;;;22.76;48.32
50125;BME280;36023;48.670;6.184;2022-09-13T10:45:21;98440.78;;;22.76;48.42
50125;BME280;36023;48.670;6.184;2022-09-13T10:47:47;98441.75;;;22.75;48.21
50125;BME280;36023;48.670;6.184;2022-09-13T10:52:53;98447.03;;;22.75;48.50
50125;BME280;36023;48.670;6.184;2022-09-13T10:55:24;98447.03;;;22.75;48.22
50125;BME280;36023;48.670;6.184;2022-09-13T10:57:51;98446.19;;;22.75;48.39
50125;BME280;36023;48.670;6.184;2022-09-13T11:00:21;98442.59;;;22.76;48.37
50125;BME280;36023;48.670;6.184;2022-09-13T11:15:13;98424.94;;;22.76;48.49
50125;BME280;36023;48.670;6.184;2022-09-13T11:23:06;98421.47;;;22.76;48.84
50125;BME280;36023;48.670;6.184;2022-09-13T11:35:48;98417.88;;;22.77;48.96
50125;BME280;36023;48.670;6.184;2022-09-13T11:45:39;98404.53;;;22.78;48.93
50125;BME280;36023;48.670;6.184;2022-09-13T11:56:11;98404.41;;;22.80;49.33
50125;BME280;36023;48.670;6.184;2022-09-13T11:58:41;98406.19;;;22.79;49.16
50125;BME280;36023;48.670;6.184;2022-09-13T12:01:09;98406.19;;;22.79;49.19
50125;BME280;36023;48.670;6.184;2022-09-13T12:03:41;98393.84;;;22.80;49.19
50125;BME280;36023;48.670;6.184;2022-09-13T12:06:13;98395.66;;;22.79;49.29
50125;BME280;36023;48.670;6.184;2022-09-13T12:08:44;98387.72;;;22.79;49.38
50125;BME280;36023;48.670;6.184;2022-09-13T12:11:14;98385.09;;;22.79;49.39
50125;BME280;36023;48.670;6.184;2022-09-13T12:13:44;98377.16;;;22.79;49.57
50125;BME280;36023;48.670;6.184;2022-09-13T12:16:12;98384.25;;;22.79;49.79
50125;BME280;36023;48.670;6.184;2022-09-13T12:21:06;98371.88;;;22.79;49.86
50125;BME280;36023;48.670;6.184;2022-09-13T12:23:37;98370.09;;;22.80;49.66
50125;BME280;36023;48.670;6.184;2022-09-13T12:28:43;98368.31;;;22.80;49.90
50125;BME280;36023;48.670;6.184;2022-09-13T12:31:15;98365.66;;;22.80;50.04
50125;BME280;36023;48.670;6.184;2022-09-13T12:33:44;98369.97;;;22.82;50.17
50125;BME280;36023;48.670;6.184;2022-09-13T12:38:47;98362.06;;;22.82;49.96
50125;BME280;36023;48.670;6.184;2022-09-13T13:02:34;98327.59;;;22.83;50.97
50125;BME280;36023;48.670;6.184;2022-09-13T13:05:05;98310.09;;;22.82;51.00
50125;BME280;36023;48.670;6.184;2022-09-13T13:07:40;98304.81;;;22.82;51.04
50125;BME280;36023;48.670;6.184;2022-09-13T13:10:30;98309.25;;;22.82;50.82
50125;BME280;36023;48.670;6.184;2022-09-13T13:12:55;98305.66;;;22.83;50.98
50125;BME280;36023;48.670;6.184;2022-09-13T13:17:50;98289.81;;;22.83;51.08
50125;BME280;36023;48.670;6.184;2022-09-13T13:36:43;98286.94;;;22.86;51.67
50125;BME280;36023;48.670;6.184;2022-09-13T13:41:52;98279.84;;;22.86;51.83
50125;BME280;36023;48.670;6.184;2022-09-13T13:46:45;98285.97;;;22.87;52.07
50125;BME280;36023;48.670;6.184;2022-09-13T14:00:04;98282.34;;;22.88;52.14
50125;BME280;36023;48.670;6.184;2022-09-13T14:10:19;98267.25;;;22.90;52.38
50125;BME280;36023;48.670;6.184;2022-09-13T14:12:49;98262.81;;;22.90;52.66
50125;BME280;36023;48.670;6.184;2022-09-13T14:18:13;98261.84;;;22.91;52.55
50125;BME280;36023;48.670;6.184;2022-09-13T14:23:28;98258.22;;;22.92;52.92
50125;BME280;36023;48.670;6.184;2022-09-13T14:25:55;98241.53;;;22.92;53.06
50125;BME280;36023;48.670;6.184;2022-09-13T14:28:21;98242.50;;;22.91;53.00
50125;BME280;36023;48.670;6.184;2022-09-13T14:30:47;98231.94;;;22.91;53.09
50125;BME280;36023;48.670;6.184;2022-09-13T14:33:20;98224.03;;;22.91;53.24
50125;BME280;36023;48.670;6.184;2022-09-13T14:35:47;98214.31;;;22.91;53.24
50125;BME280;36023;48.670;6.184;2022-09-13T14:38:21;98202.91;;;22.91;53.41
50125;BME280;36023;48.670;6.184;2022-09-13T14:40:48;98195.00;;;22.91;53.23
50125;BME280;36023;48.670;6.184;2022-09-13T14:43:15;98193.19;;;22.91;53.39
50125;BME280;36023;48.670;6.184;2022-09-13T14:45:40;98187.91;;;22.91;53.14
50125;BME280;36023;48.670;6.184;2022-09-13T14:48:08;98180.94;;;22.90;53.57
50125;BME280;36023;48.670;6.184;2022-09-13T14:53:18;98186.09;;;22.92;53.53
50125;BME280;36023;48.670;6.184;2022-09-13T14:55:47;98186.09;;;22.92;53.80
50125;BME280;36023;48.670;6.184;2022-09-13T14:58:16;98183.47;;;22.92;53.55
50125;BME280;36023;48.670;6.184;2022-09-13T15:00:50;98181.66;;;22.92;53.64
50125;BME280;36023;48.670;6.184;2022-09-13T15:03:17;98175.53;;;22.92;53.98
50125;BME280;36023;48.670;6.184;2022-09-13T15:05:49;98162.34;;;22.92;53.95
50125;BME280;36023;48.670;6.184;2022-09-13T15:08:25;98161.34;;;22.93;53.78
50125;BME280;36023;48.670;6.184;2022-09-13T15:10:52;98161.34;;;22.93;54.07
50125;BME280;36023;48.670;6.184;2022-09-13T15:13:20;98160.38;;;22.94;54.10
50125;BME280;36023;48.670;6.184;2022-09-13T15:15:46;98144.69;;;22.92;54.24
50125;BME280;36023;48.670;6.184;2022-09-13T15:20:58;98144.53;;;22.94;54.29
50125;BME280;36023;48.670;6.184;2022-09-13T15:23:33;98150.66;;;22.94;54.15
50125;BME280;36023;48.670;6.184;2022-09-13T15:26:09;98149.81;;;22.94;54.26
50125;BME280;36023;48.670;6.184;2022-09-13T15:31:22;98148.84;;;22.95;54.24
50125;BME280;36023;48.670;6.184;2022-09-13T15:36:35;98165.44;;;22.97;54.40
50125;BME280;36023;48.670;6.184;2022-09-13T15:39:12;98160.16;;;22.97;54.40
50125;BME280;36023;48.670;6.184;2022-09-13T15:41:49;98162.66;;;22.98;54.43
50125;BME280;36023;48.670;6.184;2022-09-13T15:44:15;98164.19;;;23.01;54.39
50125;BME280;36023;48.670;6.184;2022-09-13T15:46:48;98157.22;;;23.00;54.33
50125;BME280;36023;48.670;6.184;2022-09-13T15:49:18;98154.44;;;23.01;54.40
50125;BME280;36023;48.670;6.184;2022-09-13T15:51:44;98160.56;;;23.02;54.64
50125;BME280;36023;48.670;6.184;2022-09-13T15:54:11;98158.75;;;23.02;54.38
50125;BME280;36023;48.670;6.184;2022-09-13T15:56:37;98156.13;;;23.02;54.43
50125;BME280;36023;48.670;6.184;2022-09-13T15:59:05;98165.75;;;23.03;54.46
50125;BME280;36023;48.670;6.184;2022-09-13T16:01:31;98166.59;;;23.04;54.74
50125;BME280;36023;48.670;6.184;2022-09-13T16:03:57;98155.19;;;23.03;54.56
50125;BME280;36023;48.670;6.184;2022-09-13T16:06:23;98154.22;;;23.04;54.42
50125;BME280;36023;48.670;6.184;2022-09-13T16:08:48;98155.88;;;23.05;54.69
50125;BME280;36023;48.670;6.184;2022-09-13T16:11:14;98157.69;;;23.05;54.37
50125;BME280;36023;48.670;6.184;2022-09-13T16:13:39;98147.94;;;23.05;54.43
50125;BME280;36023;48.670;6.184;2022-09-13T16:16:05;98146.97;;;23.06;54.44
50125;BME280;36023;48.670;6.184;2022-09-13T16:18:33;98145.19;;;23.07;54.42
50125;BME280;36023;48.670;6.184;2022-09-13T16:21:00;98151.28;;;23.07;54.83
50125;BME280;36023;48.670;6.184;2022-09-13T16:23:25;98152.13;;;23.08;54.65
50125;BME280;36023;48.670;6.184;2022-09-13T16:25:52;98152.97;;;23.08;54.66
50125;BME280;36023;48.670;6.184;2022-09-13T16:28:19;98159.06;;;23.09;54.82
50125;BME280;36023;48.670;6.184;2022-09-13T16:30:46;98152.81;;;23.10;54.54
50125;BME280;36023;48.670;6.184;2022-09-13T16:33:11;98148.50;;;23.09;54.75
50125;BME280;36023;48.670;6.184;2022-09-13T16:35:38;98147.53;;;23.10;54.83
50125;BME280;36023;48.670;6.184;2022-09-13T16:38:03;98151.75;;;23.13;54.96
50125;BME280;36023;48.670;6.184;2022-09-13T16:40:29;98151.84;;;23.11;54.90